Time;durP1;ratioP1;P1;durP2;ratioP2;P2;SDS_P1;SDS_P2;PMS_P1;PMS_P2;Temp;Humidity;BMP_temperature;BMP_pressure;BME280_temperature;BME280_humidity;BME280_pressure;Samples;Min_cycle;Max_cycle;Signal;HPM_P1;HPM_P2
2022/06/19 00:00:42;;;;;;;14.40;11.57;;;;;;;16.70;100.00;95168.13;4958245;28;20649;-84
2022/06/19 00:03:23;;;;;;;18.43;10.43;;;;;;;16.65;100.00;95169.91;4965045;28;20206;-84
2022/06/19 00:06:00;;;;;;;14.90;10.50;;;;;;;16.65;100.00;95168.06;4967354;28;20205;-83
2022/06/19 00:08:41;;;;;;;17.73;12.37;;;;;;;16.63;100.00;95171.97;4964660;28;20204;-83
2022/06/19 00:11:14;;;;;;;13.87;11.87;;;;;;;16.59;100.00;95166.44;4960829;28;20212;-83
2022/06/19 00:13:47;;;;;;;12.93;10.57;;;;;;;16.52;100.00;95165.75;4957248;28;20205;-83
2022/06/19 00:16:25;;;;;;;16.27;10.03;;;;;;;16.61;100.00;95171.41;4959383;28;20241;-83
2022/06/19 00:18:59;;;;;;;13.27;11.27;;;;;;;16.56;100.00;95163.47;4954843;28;20227;-83
2022/06/19 00:21:31;;;;;;;18.07;11.47;;;;;;;16.59;100.00;95168.25;4959574;28;20200;-84
2022/06/19 00:24:14;;;;;;;17.23;15.27;;;;;;;16.55;100.00;95167.94;4965307;28;20216;-84
2022/06/19 00:26:48;;;;;;;17.23;14.00;;;;;;;16.52;100.00;95170.22;4958279;28;20225;-84
2022/06/19 00:29:26;;;;;;;19.73;14.37;;;;;;;16.56;100.00;95180.03;4959507;28;20663;-84
2022/06/19 00:32:00;;;;;;;21.00;14.53;;;;;;;16.57;100.00;95170.31;4962824;28;21045;-84
2022/06/19 00:34:41;;;;;;;17.40;14.27;;;;;;;16.57;100.00;95167.69;4960965;28;20264;-84
2022/06/19 00:37:20;;;;;;;21.47;13.43;;;;;;;16.54;100.00;95168.97;4964046;28;20212;-84
2022/06/19 00:40:01;;;;;;;17.07;13.20;;;;;;;16.53;100.00;95166.56;4959509;28;20256;-84
2022/06/19 00:42:41;;;;;;;19.67;12.10;;;;;;;16.55;100.00;95167.94;4967339;28;20200;-87
2022/06/19 00:45:41;;;;;;;20.90;11.87;;;;;;;16.49;100.00;95168.88;4961204;28;20576;-88
2022/06/19 00:48:29;;;;;;;17.37;12.17;;;;;;;16.45;100.00;95162.50;4956048;28;20692;-86
2022/06/19 00:51:14;;;;;;;13.40;11.60;;;;;;;16.50;100.00;95172.28;4963460;28;20208;-88
2022/06/19 00:53:48;;;;;;;20.70;12.53;;;;;;;16.38;100.00;95165.31;4959523;28;20815;-90
2022/06/19 00:56:27;;;;;;;21.40;12.43;;;;;;;16.43;100.00;95162.75;4964589;28;20318;-87
2022/06/19 00:59:00;;;;;;;17.70;12.07;;;;;;;16.43;100.00;95167.19;4964098;28;20201;-86
2022/06/19 01:01:38;;;;;;;17.70;11.40;;;;;;;16.31;100.00;95162.06;4968303;28;20200;-86
2022/06/19 01:04:24;;;;;;;18.73;13.60;;;;;;;16.21;100.00;95163.75;4965211;28;20392;-82
2022/06/19 01:07:02;;;;;;;18.93;14.10;;;;;;;16.24;100.00;95161.44;4967116;28;20212;-83
2022/06/19 01:09:34;;;;;;;24.70;13.50;;;;;;;16.26;100.00;95161.97;4963950;28;20204;-84
2022/06/19 01:12:11;;;;;;;18.73;12.97;;;;;;;16.23;100.00;95166.91;4961189;28;20732;-85
2022/06/19 01:14:57;;;;;;;15.20;12.60;;;;;;;16.22;100.00;95163.47;4963998;28;20205;-84
2022/06/19 01:17:34;;;;;;;19.83;11.90;;;;;;;16.24;100.00;95171.94;4964108;28;20228;-84
2022/06/19 01:20:16;;;;;;;19.00;11.80;;;;;;;16.20;100.00;95167.38;4966983;28;20259;-84
2022/06/19 01:22:54;;;;;;;21.10;11.30;;;;;;;16.18;100.00;95156.34;4965094;28;20209;-85
2022/06/19 01:25:39;;;;;;;14.47;10.63;;;;;;;16.21;100.00;95161.13;4966707;28;20209;-85
2022/06/19 01:31:16;;;;;;;18.70;11.70;;;;;;;16.18;100.00;95153.72;4967191;28;20197;-85
2022/06/19 01:33:57;;;;;;;15.07;10.77;;;;;;;16.22;100.00;95162.72;4966216;28;20205;-85
2022/06/19 01:36:37;;;;;;;16.47;11.13;;;;;;;16.19;100.00;95147.47;4966357;28;20275;-85
2022/06/19 01:39:13;;;;;;;20.73;11.37;;;;;;;16.18;100.00;95143.22;4961103;28;20262;-83
2022/06/19 01:41:55;;;;;;;13.83;10.27;;;;;;;16.20;100.00;95157.69;4965412;28;20679;-83
2022/06/19 01:44:35;;;;;;;12.47;9.93;;;;;;;16.20;100.00;95154.28;4961574;28;20220;-83
2022/06/19 01:47:15;;;;;;;15.17;10.73;;;;;;;16.17;100.00;95155.56;4961193;28;20205;-83
2022/06/19 01:49:52;;;;;;;13.37;10.73;;;;;;;16.01;100.00;95160.81;4965869;28;20330;-83
2022/06/19 01:52:38;;;;;;;13.87;9.20;;;;;;;15.90;100.00;95160.63;4969436;28;20221;-83
2022/06/19 01:55:17;;;;;;;13.30;7.77;;;;;;;15.73;100.00;95164.28;4943941;29;20209;-82
2022/06/19 01:57:58;;;;;;;10.20;7.93;;;;;;;15.65;100.00;95162.03;4944130;29;20197;-82
2022/06/19 02:00:36;;;;;;;17.77;9.67;;;;;;;15.66;100.00;95163.66;4947719;29;20243;-82
2022/06/19 02:03:20;;;;;;;13.20;8.50;;;;;;;15.70;100.00;95167.41;4939645;29;20209;-82
2022/06/19 02:05:57;;;;;;;13.07;8.53;;;;;;;15.71;100.00;95161.09;4946854;29;20205;-82
2022/06/19 02:08:40;;;;;;;12.73;7.50;;;;;;;15.73;100.00;95161.66;4942169;29;20280;-88
2022/06/19 02:11:22;;;;;;;10.50;7.87;;;;;;;15.70;100.00;95177.88;4944229;28;20238;-84
2022/06/19 02:14:04;;;;;;;11.53;8.17;;;;;;;15.65;100.00;95172.53;4944754;29;20218;-83
2022/06/19 02:16:42;;;;;;;12.73;8.63;;;;;;;15.59;100.00;95170.84;4940332;29;20218;-82
2022/06/19 02:19:22;;;;;;;12.30;8.43;;;;;;;15.64;100.00;95171.72;4936862;29;20692;-82
2022/06/19 02:21:57;;;;;;;13.03;8.70;;;;;;;15.61;100.00;95180.06;4946132;29;20210;-82
2022/06/19 02:24:37;;;;;;;14.07;9.20;;;;;;;15.65;100.00;95173.31;4941975;29;20284;-83
2022/06/19 02:27:14;;;;;;;14.73;8.73;;;;;;;15.64;100.00;95174.34;4940260;29;20683;-80
2022/06/19 02:30:01;;;;;;;16.43;8.87;;;;;;;15.62;100.00;95181.66;4941137;29;20208;-81
2022/06/19 02:32:41;;;;;;;17.87;8.40;;;;;;;15.60;100.00;95183.72;4946440;29;20639;-81
2022/06/19 02:35:23;;;;;;;16.87;11.57;;;;;;;15.60;100.00;95172.44;4943919;29;20212;-82
2022/06/19 02:38:03;;;;;;;14.70;9.73;;;;;;;15.64;100.00;95179.59;4939508;29;20233;-83
2022/06/19 02:40:50;;;;;;;13.63;8.53;;;;;;;15.63;100.00;95178.03;4946844;29;20687;-83
2022/06/19 02:43:31;;;;;;;15.63;8.57;;;;;;;15.63;100.00;95178.03;4941379;29;20205;-84
2022/06/19 02:46:09;;;;;;;12.03;8.17;;;;;;;15.59;100.00;95183.94;4946572;29;20288;-83
2022/06/19 02:48:50;;;;;;;17.43;9.03;;;;;;;15.46;100.00;95165.88;4942970;29;20704;-85
2022/06/19 02:51:29;;;;;;;16.87;8.80;;;;;;;15.60;100.00;95185.56;4938219;29;20202;-83
2022/06/19 02:54:16;;;;;;;15.60;9.83;;;;;;;15.62;100.00;95183.47;4957819;28;20255;-85
2022/06/19 02:56:52;;;;;;;13.53;10.00;;;;;;;15.63;100.00;95190.31;4965261;28;20216;-84
2022/06/19 02:59:30;;;;;;;15.73;9.77;;;;;;;15.59;100.00;95191.81;4967666;28;20579;-84
2022/06/19 03:02:14;;;;;;;12.87;9.13;;;;;;;15.54;100.00;95196.97;4959792;28;20200;-85
2022/06/19 03:04:53;;;;;;;15.07;9.90;;;;;;;15.51;100.00;95186.94;4954569;28;20205;-84
2022/06/19 03:07:32;;;;;;;16.07;10.10;;;;;;;15.52;100.00;95191.19;4960760;28;20303;-84
2022/06/19 03:10:08;;;;;;;17.20;10.17;;;;;;;15.53;100.00;95203.22;4958471;28;20277;-83
2022/06/19 03:12:42;;;;;;;16.10;10.77;;;;;;;15.55;100.00;95194.13;4963696;28;20201;-84
2022/06/19 03:15:21;;;;;;;15.77;10.77;;;;;;;15.55;100.00;95199.38;4958252;28;20241;-85
2022/06/19 03:18:05;;;;;;;14.23;9.90;;;;;;;15.53;100.00;95200.59;4960872;28;20308;-84
2022/06/19 03:20:39;;;;;;;17.13;10.00;;;;;;;15.55;100.00;95206.44;4958883;28;20205;-84
2022/06/19 03:23:14;;;;;;;19.77;12.37;;;;;;;15.55;100.00;95199.38;4960848;28;20236;-84
2022/06/19 03:25:50;;;;;;;17.23;11.07;;;;;;;15.45;100.00;95201.75;4963718;28;20222;-84
2022/06/19 03:28:31;;;;;;;15.13;9.13;;;;;;;15.34;100.00;95203.41;4965683;28;20208;-84
2022/06/19 03:31:11;;;;;;;14.73;9.13;;;;;;;15.28;100.00;95193.06;4960457;28;20779;-83
2022/06/19 03:33:52;;;;;;;12.70;8.20;;;;;;;15.27;100.00;95196.69;4966037;28;20232;-86
2022/06/19 03:36:34;;;;;;;11.73;8.03;;;;;;;15.23;100.00;95193.78;4958270;28;20287;-85
2022/06/19 03:39:15;;;;;;;12.10;8.43;;;;;;;15.13;100.00;95198.78;4960017;28;20197;-84
2022/06/19 03:41:50;;;;;;;13.27;8.77;;;;;;;15.16;100.00;95184.44;4960754;28;20297;-86
2022/06/19 03:44:32;;;;;;;14.57;8.40;;;;;;;15.25;100.00;95193.53;4958588;28;20211;-84
2022/06/19 03:47:15;;;;;;;15.90;8.67;;;;;;;15.21;100.00;95181.91;4955484;28;20197;-85
2022/06/19 03:49:55;;;;;;;16.03;8.87;;;;;;;15.40;100.00;95187.78;4968732;28;20247;-85
2022/06/19 03:52:33;;;;;;;13.87;8.57;;;;;;;15.44;100.00;95187.06;4960556;28;20205;-87
2022/06/19 03:55:12;;;;;;;13.70;8.53;;;;;;;15.51;100.00;95182.50;4958165;28;20232;-87
2022/06/19 03:57:47;;;;;;;13.03;8.47;;;;;;;15.61;100.00;95189.78;4958690;28;20234;-88
2022/06/19 04:00:19;;;;;;;14.50;8.40;;;;;;;15.69;100.00;95190.19;4964828;28;21100;-86
2022/06/19 04:02:56;;;;;;;15.10;8.50;;;;;;;15.73;100.00;95191.28;4958345;28;20259;-86
2022/06/19 04:05:41;;;;;;;12.77;9.20;;;;;;;15.75;100.00;95191.06;4964343;28;20713;-87
2022/06/19 04:08:20;;;;;;;12.07;8.77;;;;;;;15.81;100.00;95197.97;4960856;28;20209;-85
2022/06/19 04:10:55;;;;;;;16.67;9.57;;;;;;;15.87;100.00;95207.53;4963422;28;20208;-83
2022/06/19 04:13:38;;;;;;;16.73;9.27;;;;;;;15.80;100.00;95204.25;4963727;28;20439;-82
2022/06/19 04:16:19;;;;;;;15.87;9.40;;;;;;;15.90;100.00;95213.06;4957479;28;20976;-83
2022/06/19 04:18:53;;;;;;;10.30;8.30;;;;;;;15.92;100.00;95204.19;4959232;28;20197;-83
2022/06/19 04:21:38;;;;;;;8.50;7.23;;;;;;;15.77;100.00;95191.59;4962916;28;20686;-82
2022/06/19 04:24:18;;;;;;;14.07;7.40;;;;;;;15.78;100.00;95199.25;4952900;28;20732;-84
2022/06/19 04:26:58;;;;;;;10.17;7.33;;;;;;;15.88;100.00;95202.03;4960809;28;20215;-84
2022/06/19 04:29:34;;;;;;;9.67;7.47;;;;;;;15.95;100.00;95204.50;4964075;28;20201;-83
2022/06/19 04:32:09;;;;;;;8.60;6.67;;;;;;;15.99;100.00;95207.47;4960171;28;20205;-87
2022/06/19 04:34:41;;;;;;;8.43;6.57;;;;;;;16.00;100.00;95204.59;4957495;28;20236;-83
2022/06/19 04:37:23;;;;;;;8.87;6.70;;;;;;;16.08;100.00;95212.06;4955921;28;20744;-84
2022/06/19 04:40:06;;;;;;;7.90;6.50;;;;;;;16.16;100.00;95209.03;4959496;28;20208;-83
2022/06/19 04:42:41;;;;;;;11.27;6.03;;;;;;;16.15;100.00;95204.84;4954643;28;20205;-84
2022/06/19 04:45:23;;;;;;;8.07;6.87;;;;;;;16.12;100.00;95210.56;4960359;28;20208;-83
2022/06/19 04:48:01;;;;;;;7.70;6.70;;;;;;;16.17;100.00;95204.56;4959099;28;20744;-83
2022/06/19 04:50:37;;;;;;;11.00;6.77;;;;;;;16.19;100.00;95199.91;4967266;28;20204;-82
2022/06/19 04:53:25;;;;;;;11.00;6.73;;;;;;;16.20;100.00;95207.53;4960564;28;20753;-83
2022/06/19 04:56:03;;;;;;;7.53;6.10;;;;;;;16.19;100.00;95208.56;4962449;28;20292;-84
2022/06/19 04:58:41;;;;;;;8.87;6.50;;;;;;;16.27;100.00;95212.63;4959814;28;20235;-82
2022/06/19 05:01:27;;;;;;;10.50;7.43;;;;;;;16.33;100.00;95214.28;4954828;28;20201;-81
2022/06/19 05:04:07;;;;;;;11.40;6.97;;;;;;;16.28;100.00;95220.25;4964063;28;20208;-82
2022/06/19 05:06:41;;;;;;;10.40;7.27;;;;;;;16.31;100.00;95218.97;4958189;28;20197;-79
2022/06/19 05:09:28;;;;;;;13.53;7.70;;;;;;;16.32;100.00;95217.94;4957790;28;20192;-90
2022/06/19 05:12:08;;;;;;;9.07;7.00;;;;;;;16.36;100.00;95224.31;4958401;28;20213;-81
2022/06/19 05:14:47;;;;;;;10.67;7.50;;;;;;;16.37;100.00;95226.69;4962879;28;20613;-81
2022/06/19 05:17:29;;;;;;;8.60;7.70;;;;;;;16.41;100.00;95221.75;4961990;28;20217;-81
2022/06/19 05:20:07;;;;;;;10.43;7.73;;;;;;;16.45;100.00;95223.66;4959462;28;20251;-81
2022/06/19 05:22:42;;;;;;;11.10;7.47;;;;;;;16.43;100.00;95228.34;4960721;28;20714;-80
2022/06/19 05:25:20;;;;;;;14.77;8.27;;;;;;;16.33;100.00;95222.94;4955101;28;20291;-80
2022/06/19 05:28:00;;;;;;;13.13;8.03;;;;;;;16.20;100.00;95219.84;4953465;28;20221;-80
2022/06/19 05:30:41;;;;;;;9.93;7.60;;;;;;;16.22;100.00;95229.06;4954310;28;20205;-81
2022/06/19 05:33:25;;;;;;;10.50;8.20;;;;;;;16.29;100.00;95228.91;4940427;28;20667;-84
2022/06/19 05:36:05;;;;;;;11.27;8.10;;;;;;;16.36;100.00;95225.09;4955940;28;20234;-81
2022/06/19 05:38:41;;;;;;;11.57;8.27;;;;;;;16.44;100.00;95221.28;4962696;28;20236;-84
2022/06/19 05:41:20;;;;;;;10.50;8.67;;;;;;;16.49;100.00;95216.09;4961413;28;20591;-81
2022/06/19 05:44:00;;;;;;;10.80;8.37;;;;;;;16.62;100.00;95223.69;4962097;28;20205;-85
2022/06/19 05:46:41;;;;;;;11.47;7.97;;;;;;;16.71;100.00;95226.69;4963294;28;20478;-81
2022/06/19 05:49:16;;;;;;;12.10;9.23;;;;;;;16.75;100.00;95217.28;4964991;28;20211;-82
2022/06/19 05:51:54;;;;;;;16.20;9.03;;;;;;;16.78;100.00;95224.66;4961054;28;20583;-83
2022/06/19 05:54:34;;;;;;;12.20;9.70;;;;;;;16.72;100.00;95229.06;4962285;28;20262;-82
2022/06/19 05:57:23;;;;;;;15.27;9.73;;;;;;;16.76;100.00;95224.94;4969722;28;20294;-81
2022/06/19 05:59:55;;;;;;;13.07;9.00;;;;;;;16.88;100.00;95228.22;4962405;28;20208;-81
2022/06/19 06:02:29;;;;;;;12.37;8.93;;;;;;;16.95;100.00;95222.78;4960596;28;20236;-81
2022/06/19 06:05:00;;;;;;;12.33;8.40;;;;;;;17.00;100.00;95226.28;4959559;28;20588;-81
2022/06/19 06:07:33;;;;;;;14.97;8.80;;;;;;;17.06;100.00;95232.41;4958686;28;20212;-81
2022/06/19 06:10:08;;;;;;;13.60;9.13;;;;;;;17.15;100.00;95225.69;4962697;28;20201;-81
2022/06/19 06:12:47;;;;;;;14.50;8.90;;;;;;;17.16;100.00;95221.22;4960619;28;20292;-81
2022/06/19 06:15:28;;;;;;;14.13;8.93;;;;;;;17.26;100.00;95222.13;4964990;28;20245;-81
2022/06/19 06:18:11;;;;;;;11.47;8.43;;;;;;;17.37;100.00;95223.06;4962223;28;20784;-80
2022/06/19 06:20:51;;;;;;;13.43;9.17;;;;;;;17.43;100.00;95216.81;4960864;28;20299;-80
2022/06/19 06:23:34;;;;;;;11.63;8.17;;;;;;;17.53;100.00;95224.81;4962969;28;20205;-83
2022/06/19 06:26:11;;;;;;;12.80;8.67;;;;;;;17.65;100.00;95230.75;4967007;28;20271;-84
2022/06/19 06:28:51;;;;;;;10.23;8.90;;;;;;;17.71;100.00;95229.78;4964371;28;20204;-79
2022/06/19 06:31:30;;;;;;;16.77;9.13;;;;;;;17.69;100.00;95229.19;4963586;28;20210;-79
2022/06/19 06:34:10;;;;;;;11.20;8.47;;;;;;;17.70;100.00;95220.28;4963546;28;20816;-80
2022/06/19 06:36:44;;;;;;;10.63;8.23;;;;;;;17.85;100.00;95227.53;4963385;28;20263;-80
2022/06/19 06:39:23;;;;;;;11.57;8.10;;;;;;;17.89;100.00;95226.78;4963430;28;20605;-80
2022/06/19 06:42:00;;;;;;;8.57;7.67;;;;;;;17.95;100.00;95220.53;4961098;28;20311;-81
2022/06/19 06:44:41;;;;;;;12.43;9.13;;;;;;;18.01;100.00;95216.09;4970624;28;20292;-79
2022/06/19 06:47:23;;;;;;;12.53;9.30;;;;;;;18.07;100.00;95210.63;4969138;28;20232;-79
2022/06/19 06:50:01;;;;;;;11.53;7.83;;;;;;;18.14;100.00;95213.88;4955290;28;20212;-79
2022/06/19 06:52:40;;;;;;;10.73;7.80;;;;;;;18.13;100.00;95209.63;4957693;28;20213;-79
2022/06/19 06:55:23;;;;;;;7.85;6.85;;;;;;;18.27;100.00;95214.50;4940845;29;20293;-80
2022/06/19 06:58:01;;;;;;;13.68;7.82;;;;;;;18.40;99.81;95220.13;4935597;28;20291;-79
2022/06/19 07:00:42;;;;;;;9.73;7.10;;;;;;;18.47;97.77;95212.00;4946877;29;20201;-79
2022/06/19 07:03:20;;;;;;;11.15;7.30;;;;;;;18.50;97.03;95214.94;4948197;29;21102;-80
2022/06/19 07:05:59;;;;;;;9.73;7.43;;;;;;;18.56;96.62;95208.66;4937916;29;20260;-79
2022/06/19 07:08:35;;;;;;;8.65;7.32;;;;;;;18.65;95.42;95206.34;4943221;29;20201;-80
2022/06/19 07:11:16;;;;;;;12.30;7.32;;;;;;;18.67;95.52;95205.03;4943967;29;20205;-79
2022/06/19 07:13:48;;;;;;;11.98;7.85;;;;;;;18.77;94.21;95199.06;4944166;29;20205;-79
2022/06/19 07:16:31;;;;;;;9.98;7.35;;;;;;;18.87;92.36;95200.97;4950042;29;20202;-79
2022/06/19 07:19:12;;;;;;;10.45;7.15;;;;;;;19.00;90.21;95200.47;4941722;29;20225;-80
2022/06/19 07:21:46;;;;;;;9.77;7.18;;;;;;;19.09;88.24;95199.75;4942553;29;20233;-80
2022/06/19 07:24:25;;;;;;;13.15;6.85;;;;;;;19.14;88.92;95193.69;4938155;29;20247;-80
2022/06/19 07:27:06;;;;;;;8.60;6.90;;;;;;;19.21;88.56;95196.91;4942715;29;20217;-81
2022/06/19 07:29:44;;;;;;;12.75;6.55;;;;;;;19.27;88.92;95190.59;4937310;29;21373;-80
2022/06/19 07:32:26;;;;;;;18.30;10.20;;;;;;;19.38;86.95;95181.66;4944442;29;20205;-80
2022/06/19 07:35:04;;;;;;;10.05;7.60;;;;;;;19.50;82.56;95187.53;4945927;29;20217;-80
2022/06/19 07:37:42;;;;;;;20.83;11.65;;;;;;;19.51;81.89;95172.50;4942711;29;20225;-80
2022/06/19 07:40:26;;;;;;;23.90;14.25;;;;;;;19.65;82.42;95189.41;4945912;29;20201;-80
2022/06/19 07:43:03;;;;;;;19.05;10.68;;;;;;;19.76;80.59;95186.53;4941079;29;20220;-80
2022/06/19 07:45:40;;;;;;;14.23;7.22;;;;;;;19.79;81.72;95166.75;4939440;29;20210;-79
2022/06/19 07:51:19;;;;;;;13.30;6.63;;;;;;;19.98;80.06;95174.94;4946816;29;20295;-79
2022/06/19 07:54:00;;;;;;;12.38;6.70;;;;;;;20.15;80.60;95188.66;4954575;28;20241;-79
2022/06/19 07:56:40;;;;;;;10.82;7.50;;;;;;;20.25;80.45;95186.06;4961404;28;20204;-79
2022/06/19 07:59:23;;;;;;;9.45;6.75;;;;;;;20.35;78.59;95181.56;4960369;28;20691;-79
2022/06/19 08:02:03;;;;;;;12.15;5.35;;;;;;;20.42;73.32;95186.56;4960378;28;21264;-76
2022/06/19 08:04:41;;;;;;;6.45;4.88;;;;;;;20.54;72.60;95189.72;4961663;28;20216;-80
2022/06/19 08:07:22;;;;;;;7.25;3.42;;;;;;;20.69;70.09;95186.28;4962956;28;20703;-77
2022/06/19 08:10:01;;;;;;;12.55;3.33;;;;;;;20.85;67.20;95175.41;4968015;28;20215;-80
2022/06/19 08:12:39;;;;;;;6.63;3.40;;;;;;;21.23;81.99;95179.25;4962474;28;20204;-81
2022/06/19 08:15:15;;;;;;;8.80;3.10;;;;;;;21.61;74.86;95179.59;4961953;28;20236;-82
2022/06/19 08:17:53;;;;;;;6.72;3.08;;;;;;;21.83;67.93;95183.41;4958853;28;20220;-83
2022/06/19 08:20:52;;;;;;;3.53;2.55;;;;;;;21.92;60.97;95175.72;4958103;28;20208;-82
2022/06/19 08:23:31;;;;;;;3.20;2.55;;;;;;;21.99;61.44;95184.16;4959179;28;20197;-85
2022/06/19 08:26:08;;;;;;;3.03;2.58;;;;;;;22.07;61.89;95169.53;4957847;28;20200;-77
2022/06/19 08:28:43;;;;;;;3.47;2.78;;;;;;;22.27;68.13;95174.66;4958941;28;20196;-78
2022/06/19 08:34:23;;;;;;;3.42;2.80;;;;;;;22.55;63.99;95179.16;4958872;28;20201;-78
2022/06/19 08:37:00;;;;;;;4.15;2.47;;;;;;;22.67;57.42;95184.91;4955137;28;20247;-78
2022/06/19 08:39:39;;;;;;;4.60;2.67;;;;;;;22.75;55.52;95186.16;4959625;28;20233;-83
2022/06/19 08:42:48;;;;;;;3.53;2.60;;;;;;;22.84;59.69;95181.81;4958306;28;20213;-81
2022/06/19 08:45:41;;;;;;;5.63;2.55;;;;;;;23.10;61.50;95175.16;4961701;28;20279;-86
2022/06/19 08:48:35;;;;;;;6.28;2.38;;;;;;;23.31;59.16;95184.47;4962972;28;20529;-87
2022/06/19 08:51:22;;;;;;;3.95;2.40;;;;;;;23.17;51.45;95176.41;4962687;28;20284;-87
2022/06/19 08:54:19;;;;;;;2.90;2.30;;;;;;;23.17;51.53;95181.69;4961075;28;20249;-88
2022/06/19 08:57:03;;;;;;;5.55;2.30;;;;;;;23.07;50.83;95181.03;4965042;28;20287;-86
2022/06/19 08:59:56;;;;;;;3.35;2.13;;;;;;;23.06;50.61;95179.44;4959940;28;20280;-86
2022/06/19 09:02:41;;;;;;;3.63;2.30;;;;;;;23.06;50.77;95180.25;4957171;28;20644;-85
2022/06/19 09:05:44;;;;;;;3.25;2.05;;;;;;;23.11;50.70;95172.25;4955775;28;20217;-84
2022/06/19 09:09:03;;;;;;;4.30;2.50;;;;;;;23.16;50.69;95179.34;4956345;28;20219;-85
2022/06/19 09:11:57;;;;;;;2.45;2.25;;;;;;;23.18;50.02;95167.38;4932317;28;20295;-85
2022/06/19 09:14:41;;;;;;;3.88;2.22;;;;;;;23.23;51.19;95169.19;4966415;28;20592;-76
2022/06/19 09:17:24;;;;;;;2.53;2.33;;;;;;;23.32;52.43;95161.38;4961031;28;20212;-86
2022/06/19 09:20:12;;;;;;;3.55;2.35;;;;;;;23.31;48.41;95154.50;4958098;28;20232;-86
2022/06/19 09:23:05;;;;;;;6.53;2.20;;;;;;;23.38;48.81;95155.75;4963007;28;20295;-87
2022/06/19 09:25:51;;;;;;;2.50;2.30;;;;;;;23.39;50.06;95152.03;4943868;28;20204;-87
2022/06/19 09:28:39;;;;;;;3.97;2.15;;;;;;;23.28;49.18;95131.19;4961794;28;20212;-84
2022/06/19 09:31:32;;;;;;;5.75;2.58;;;;;;;23.47;49.24;95150.59;4966187;28;20200;-88
2022/06/19 09:34:16;;;;;;;7.20;2.13;;;;;;;23.55;48.54;95144.66;4965776;28;20546;-82
2022/06/19 09:37:05;;;;;;;2.40;2.20;;;;;;;23.70;48.80;95136.47;4969310;28;20197;-80
2022/06/19 09:39:54;;;;;;;3.33;2.20;;;;;;;23.71;45.38;95135.38;4962578;28;20235;-80
2022/06/19 09:42:30;;;;;;;5.47;2.00;;;;;;;23.66;43.67;95141.53;4959464;28;20219;-81
2022/06/19 09:45:06;;;;;;;2.45;2.10;;;;;;;23.62;44.97;95121.19;4957042;28;20231;-84
2022/06/19 09:47:45;;;;;;;9.75;2.20;;;;;;;23.84;57.11;95126.69;4961004;28;20196;-82
2022/06/19 09:50:22;;;;;;;7.57;2.42;;;;;;;24.09;58.39;95130.81;4962387;28;20212;-83
2022/06/19 09:53:01;;;;;;;2.95;2.35;;;;;;;24.33;54.59;95136.03;4959606;28;20232;-82
2022/06/19 09:55:39;;;;;;;2.90;2.20;;;;;;;24.62;52.78;95134.69;4960205;28;20208;-81
2022/06/19 09:58:15;;;;;;;2.50;2.20;;;;;;;24.84;53.21;95136.72;4964702;28;20236;-81
2022/06/19 10:00:55;;;;;;;4.07;2.03;;;;;;;24.98;51.61;95136.72;4968333;28;20730;-81
2022/06/19 10:03:35;;;;;;;3.17;2.30;;;;;;;25.11;50.00;95136.72;4961102;28;20217;-82
2022/06/19 10:06:11;;;;;;;8.80;2.65;;;;;;;25.27;47.19;95138.00;4957646;28;20260;-82
2022/06/19 10:08:49;;;;;;;3.25;2.00;;;;;;;25.35;47.46;95137.28;4960795;28;20421;-82
2022/06/19 10:11:25;;;;;;;2.47;2.00;;;;;;;25.41;46.04;95129.97;4962598;28;20637;-81
2022/06/19 10:14:07;;;;;;;5.03;2.17;;;;;;;25.59;47.16;95122.97;4966004;28;20243;-83
2022/06/19 10:16:48;;;;;;;3.15;2.25;;;;;;;25.70;42.13;95119.78;4964095;28;20682;-82
2022/06/19 10:19:23;;;;;;;3.00;2.00;;;;;;;25.80;41.33;95122.19;4959903;28;20353;-81
2022/06/19 10:22:16;;;;;;;4.05;2.15;;;;;;;25.83;42.43;95116.25;4964755;28;20220;-82
2022/06/19 10:25:02;;;;;;;3.72;2.20;;;;;;;25.63;40.63;95118.59;4964468;28;20283;-82
2022/06/19 10:27:41;;;;;;;2.70;2.03;;;;;;;25.75;41.15;95113.53;4959452;28;20244;-83
2022/06/19 10:30:15;;;;;;;2.80;1.95;;;;;;;25.78;40.48;95104.94;4962179;28;20285;-81
2022/06/19 10:33:11;;;;;;;4.68;2.08;;;;;;;25.95;40.44;95116.50;4966600;28;20564;-83
2022/06/19 10:35:48;;;;;;;2.20;2.00;;;;;;;26.29;41.10;95123.19;4963565;28;20209;-81
2022/06/19 10:38:44;;;;;;;2.03;1.83;;;;;;;26.58;40.63;95123.50;4963461;28;20236;-81
2022/06/19 10:44:22;;;;;;;2.13;1.90;;;;;;;26.63;37.95;95120.72;4964410;28;20364;-86
2022/06/19 10:47:05;;;;;;;2.53;1.95;;;;;;;26.92;38.89;95123.69;4959653;28;20204;-85
2022/06/19 10:49:46;;;;;;;22.17;2.58;;;;;;;26.95;36.87;95125.75;4956037;28;20241;-80
2022/06/19 10:52:26;;;;;;;8.00;2.10;;;;;;;27.24;38.16;95117.19;4962965;28;20688;-85
2022/06/19 10:55:17;;;;;;;2.03;1.67;;;;;;;27.23;36.45;95117.47;4963547;28;20236;-84
2022/06/19 10:58:06;;;;;;;5.07;2.08;;;;;;;27.25;36.73;95102.72;4963619;28;20228;-84
2022/06/19 11:00:37;;;;;;;2.75;1.85;;;;;;;26.86;36.45;95113.44;4959520;28;20201;-85
2022/06/19 11:06:11;;;;;;;4.35;1.92;;;;;;;26.74;37.96;95110.53;4961103;28;20725;-84
2022/06/19 11:08:48;;;;;;;1.67;1.50;;;;;;;26.94;36.25;95100.13;4961225;28;20220;-84
2022/06/19 11:11:19;;;;;;;4.60;2.25;;;;;;;27.25;37.81;95104.59;4961825;28;20270;-84
2022/06/19 11:14:00;;;;;;;2.90;1.60;;;;;;;27.30;37.90;95105.22;4965360;28;20236;-85
2022/06/19 11:16:32;;;;;;;2.60;1.90;;;;;;;27.49;36.63;95094.28;4966912;28;20204;-85
2022/06/19 11:19:12;;;;;;;2.00;1.80;;;;;;;27.53;37.03;95085.34;4963934;28;20232;-84
2022/06/19 11:21:45;;;;;;;2.72;1.60;;;;;;;27.57;35.13;95088.16;4960131;28;20252;-83
2022/06/19 11:24:30;;;;;;;4.72;1.88;;;;;;;27.93;37.85;95083.31;4954505;28;20205;-84
2022/06/19 11:27:05;;;;;;;2.38;1.73;;;;;;;28.26;37.25;95078.22;4954484;28;20221;-83
2022/06/19 11:29:39;;;;;;;3.00;1.50;;;;;;;28.42;34.90;95081.97;4963310;28;20197;-82
2022/06/19 11:32:16;;;;;;;2.17;1.60;;;;;;;28.57;36.91;95089.44;4957426;28;20196;-83
2022/06/19 11:35:02;;;;;;;5.50;1.70;;;;;;;28.86;34.79;95094.09;4960657;28;20200;-84
2022/06/19 11:37:51;;;;;;;2.92;1.50;;;;;;;28.94;34.14;95079.88;4960597;28;20201;-83
2022/06/19 11:40:34;;;;;;;4.57;3.00;;;;;;;29.01;35.27;95077.47;4963219;28;20233;-83
2022/06/19 11:43:26;;;;;;;7.00;6.28;;;;;;;29.21;34.36;95079.41;4958891;28;20239;-84
2022/06/19 11:46:03;;;;;;;77.10;69.32;;;;;;;29.40;34.60;95075.53;4958833;28;20212;-82
2022/06/19 11:48:43;;;;;;;23.17;20.90;;;;;;;29.51;32.96;95066.78;4956530;28;20280;-84
2022/06/19 11:51:30;;;;;;;20.17;18.08;;;;;;;29.77;34.00;95077.28;4960389;28;20200;-87
2022/06/19 11:54:05;;;;;;;23.90;21.40;;;;;;;29.75;33.35;95072.28;4960967;28;20628;-86
2022/06/19 11:56:41;;;;;;;16.52;14.93;;;;;;;29.49;32.49;95063.66;4958443;28;20200;-79
2022/06/19 11:59:44;;;;;;;19.20;16.63;;;;;;;29.63;35.53;95064.19;4958502;28;20311;-80
2022/06/19 12:02:40;;;;;;;13.82;12.43;;;;;;;29.78;36.62;95062.78;4958927;28;20296;-84
2022/06/19 12:05:30;;;;;;;16.70;10.07;;;;;;;29.64;33.11;95065.72;4956780;28;20292;-77
2022/06/19 12:08:32;;;;;;;7.85;6.15;;;;;;;29.16;32.02;95065.41;4963898;28;20296;-82
2022/06/19 12:11:17;;;;;;;3.30;3.00;;;;;;;28.67;31.32;95064.25;4965056;28;20267;-77
2022/06/19 12:13:59;;;;;;;4.13;2.92;;;;;;;28.59;32.90;95057.03;4967362;28;20278;-76
2022/06/19 12:16:37;;;;;;;13.60;11.10;;;;;;;28.80;36.09;95057.91;4965076;28;20205;-76
2022/06/19 12:19:36;;;;;;;4.18;1.80;;;;;;;28.91;30.63;95059.13;4955629;28;20263;-78
2022/06/19 12:22:14;;;;;;;5.07;4.35;;;;;;;28.90;33.04;95054.06;4957400;28;20236;-78
2022/06/19 12:24:58;;;;;;;8.10;3.92;;;;;;;29.11;34.56;95058.38;4960975;28;20593;-78
2022/06/19 12:27:40;;;;;;;5.07;4.47;;;;;;;29.11;33.76;95060.25;4953215;28;20235;-79
2022/06/19 12:30:23;;;;;;;3.92;3.53;;;;;;;28.89;33.08;95052.53;4961120;28;20451;-80
2022/06/19 12:32:58;;;;;;;7.20;5.43;;;;;;;28.63;35.12;95044.56;4963703;28;20279;-79
2022/06/19 12:35:36;;;;;;;5.07;4.45;;;;;;;28.23;35.18;95043.28;4966437;28;20204;-77
2022/06/19 12:38:14;;;;;;;12.93;7.43;;;;;;;28.00;36.46;95043.50;4961150;28;20611;-78